EFLPEFJO

Guest
Details From EFLP - Lappeenranta
To EFJO - Joensuu
Flight Number -
Tags decoded
Created
Modified
Stats Distance 106 nm / 195 km
Max Altitude 0 ft / 0 m
Waypoints 2
Social Downloads 0
Likes 0
Share VATSIM

Download

Looking for another format? Having issues loading an existing format? Contact us
Advertisement - Login to hide

Notes

Requested: EFLP PIDOP P606 UVOVO EFJO Unmatched points: PIDOP P606 UVOVO

Route

EFLP EFJO

ID Type Via Altitude Latitude Longitude Leg Dist Tot Dist Heading (true) Name
O EFLP APT - 0 ft / 0 m 61.04455˚ 28.14440˚ - 0 nm - Lappeenranta
O EFJO APT - 0 ft / 0 m 62.65874˚ 29.61398˚ 105 nm 105 nm 23° / 24° Joensuu

Altitude Profile

Advertisement - Login to hide

EFLP

Details ICAO EFLP (LPP)
Name Lappeenranta
Region Finland
Timezone Europe/Helsinki (UTC+2.0)
Stats Elevation 349 ft / 106 m (AMSL)
Location 61.044550° 28.144400°
Runways 1
Magnetic Variation 10.408° E

METAR

EFLP 170420Z AUTO 25001KT 0150 R06/0650N R24/0400V0550N FZFG VV002 M01/M01 Q1003

Decode

TAF

Not found

Departure Runways

ID Width Length Bearing (true) Bearing (mag) Surface Threshold Offset Overrun Length
06 197 ft / 60 m 8,177 ft / 2,492 m 66.69° 56.28° Asphalt 0 ft / 0 m 210 ft / 64 m
24 197 ft / 60 m 8,177 ft / 2,492 m 246.72° 236.31° Asphalt 0 ft / 0 m 200 ft / 61 m

EFJO

Details ICAO EFJO (JOE)
Name Joensuu
Region Finland
Timezone Europe/Helsinki (UTC+2.0)
Stats Elevation 398 ft / 121 m (AMSL)
Location 62.658744° 29.613978°
Runways 2
Magnetic Variation 11.620° E

METAR

EFJO 170420Z AUTO 16002KT 6000 FZFG OVC005 M02/M02 Q1003

Decode

TAF

Not found

Destination Runways

ID Width Length Bearing (true) Bearing (mag) Surface Threshold Offset Overrun Length
10 171 ft / 52 m 8,174 ft / 2,491 m 110.33° 98.71° Asphalt 0 ft / 0 m 200 ft / 61 m
17 98 ft / 30 m 3,928 ft / 1,197 m 180.66° 169.04° Dirt 0 ft / 0 m 170 ft / 52 m
28 171 ft / 52 m 8,174 ft / 2,491 m 290.37° 278.75° Asphalt 0 ft / 0 m 0 ft / 0 m
35 98 ft / 30 m 3,928 ft / 1,197 m 0.66° 349.04° Dirt 0 ft / 0 m 575 ft / 175 m

Approach Navaids

Runway Type Ident Frequency Range Bearing (true) Bearing (mag) Slope Elevation
28 Localiser JO 109.50 MHz 18 nm / 33 km 290.33° 278.71° - 398 ft / 121 m (AMSL)
28 Glidescope JO 109.50 MHz 10 nm / 19 km 290.35° 278.73° 3.00° 398 ft / 121 m (AMSL)
28 DME JO 109.50 MHz 18 nm / 33 km - - - 418 ft / 127 m (AMSL)